首页
METAR-TAF:

METAR-TAF

机场 :

普林斯顿, 不列颠哥伦比亚, 加拿大

纬度: 49-28N, 经度: 120-31W, 海拔: 700米

当前天气观测

该预报发布于30分钟前的14:00 UTC
风速3节,风向东转东北
温度 8°C
湿度 71%
气压 1014 hPa
能見度: 40.2公里
少量云层高于6100英尺
少量云层高于7600英尺
少量云层高于24000英尺

METAR: CYDC 121400Z 07003KT 25SM FEW061 FEW076 FEW240 08/03 A2993 RMK CU1AC1CI1 CU TR CI TR ACSL CONTRAILS SLP132

时间: 07:30 (14:30 UTC)


TAF: 丢失

超过4000个机场的气象观测和天气预报(METAR&TAF报告)。

可查询的气象台以黄色和红色小点在地图上表示。

将鼠标移到小点上方,可查看气象台名称。

然后点击查看天气观测和预报。

如需切换地图:点击带黑十字的绿色按钮放大地图;点击带横线的绿色按钮缩小地图;或者点击绿色箭头查看邻近地区的地图。


METAR-TAF: